Time;durP1;ratioP1;P1;durP2;ratioP2;P2;SDS_P1;SDS_P2;PMS_P1;PMS_P2;Temp;Humidity;BMP_temperature;BMP_pressure;BME280_temperature;BME280_humidity;BME280_pressure;Samples;Min_cycle;Max_cycle;Signal;HPM_P1;HPM_P2
2023/05/28 00:04:38;;;;;;;9.27;6.18;;;8.20;99.90;;;;;;10161022;29;20534;-95
2023/05/28 00:09:42;;;;;;;10.73;7.32;;;8.30;99.90;;;;;;10140491;29;20212;-95
2023/05/28 00:14:46;;;;;;;10.13;6.60;;;8.30;99.90;;;;;;10156446;29;20231;-95
2023/05/28 00:19:49;;;;;;;14.18;7.63;;;8.20;99.90;;;;;;10173250;29;20207;-95
2023/05/28 00:24:52;;;;;;;9.48;6.93;;;8.10;99.90;;;;;;10155610;29;20215;-95
2023/05/28 00:29:55;;;;;;;11.30;7.70;;;8.10;99.90;;;;;;10148482;29;20216;-95
2023/05/28 00:34:58;;;;;;;9.13;6.55;;;7.80;99.90;;;;;;10158120;29;20247;-96
2023/05/28 00:40:01;;;;;;;12.88;7.13;;;7.80;99.90;;;;;;10155850;29;20211;-96
2023/05/28 00:45:04;;;;;;;14.60;7.65;;;7.80;99.90;;;;;;10158760;29;20215;-95
2023/05/28 00:50:08;;;;;;;9.48;6.97;;;7.70;99.90;;;;;;10141085;29;20212;-95
2023/05/28 00:55:15;;;;;;;11.48;6.90;;;7.90;99.90;;;;;;10114666;29;20248;-94
2023/05/28 01:00:18;;;;;;;13.80;7.47;;;7.80;99.90;;;;;;10174657;29;20264;-96
2023/05/28 01:05:22;;;;;;;14.48;7.45;;;7.80;99.90;;;;;;10160186;29;20260;-96
2023/05/28 01:10:25;;;;;;;12.13;6.75;;;7.50;99.90;;;;;;10161610;29;20259;-96
2023/05/28 01:15:29;;;;;;;15.75;7.57;;;7.60;99.90;;;;;;10159340;29;20212;-96
2023/05/28 01:20:33;;;;;;;8.07;5.75;;;7.60;99.90;;;;;;10173899;29;20204;-96
2023/05/28 01:25:38;;;;;;;10.95;6.82;;;7.60;99.90;;;;;;10167550;29;20650;-96
2023/05/28 01:30:43;;;;;;;16.27;8.48;;;7.60;99.90;;;;;;10161532;29;20231;-96
2023/05/28 01:35:46;;;;;;;12.35;6.90;;;7.60;99.90;;;;;;10111771;29;20218;-96
2023/05/28 01:40:49;;;;;;;11.70;6.32;;;7.50;99.90;;;;;;10179383;29;20232;-96
2023/05/28 01:45:52;;;;;;;14.65;7.80;;;7.70;99.90;;;;;;10166802;29;20215;-96
2023/05/28 01:50:55;;;;;;;8.45;6.00;;;7.80;99.90;;;;;;10165377;29;20280;-96
2023/05/28 01:55:58;;;;;;;12.63;6.63;;;7.70;99.90;;;;;;10164987;29;20291;-95
2023/05/28 02:01:15;;;;;;;14.20;7.15;;;7.50;99.90;;;;;;10164065;29;20223;-96
2023/05/28 02:06:18;;;;;;;7.93;4.95;;;7.40;99.90;;;;;;10164384;29;20248;-96
2023/05/28 02:11:21;;;;;;;9.40;6.82;;;7.50;99.90;;;;;;10180643;29;20219;-96
2023/05/28 02:16:28;;;;;;;9.75;6.20;;;7.40;99.90;;;;;;10148101;29;20211;-96
2023/05/28 02:21:31;;;;;;;12.32;6.07;;;7.30;99.90;;;;;;10163511;29;20823;-96
2023/05/28 02:26:33;;;;;;;6.85;5.05;;;7.30;99.90;;;;;;10163205;29;20220;-96
2023/05/28 02:31:36;;;;;;;9.40;6.10;;;7.40;99.90;;;;;;10165779;29;20244;-96
2023/05/28 02:36:40;;;;;;;10.15;6.05;;;7.40;99.90;;;;;;10176944;29;20220;-96
2023/05/28 02:41:43;;;;;;;8.52;5.57;;;7.60;99.90;;;;;;10162630;29;20216;-96
2023/05/28 02:46:46;;;;;;;9.40;6.10;;;7.40;99.90;;;;;;10150632;29;20291;-94
2023/05/28 02:51:53;;;;;;;9.82;6.00;;;7.50;99.90;;;;;;10197450;29;20252;-96
2023/05/28 02:57:08;;;;;;;7.90;5.38;;;7.30;99.90;;;;;;10186372;29;20216;-96
2023/05/28 03:02:18;;;;;;;15.50;6.35;;;7.10;99.90;;;;;;10201424;29;20204;-96
2023/05/28 03:07:24;;;;;;;11.35;5.97;;;7.20;99.90;;;;;;10183608;29;20219;-96
2023/05/28 03:12:28;;;;;;;8.98;6.18;;;7.20;99.90;;;;;;10183063;29;20243;-96
2023/05/28 03:17:34;;;;;;;8.07;5.60;;;7.30;99.90;;;;;;10190370;29;20237;-96
2023/05/28 03:22:39;;;;;;;11.23;5.82;;;7.30;99.90;;;;;;10132492;29;20216;-96
2023/05/28 03:27:44;;;;;;;11.68;6.50;;;7.30;99.90;;;;;;10169776;29;20220;-96
2023/05/28 03:32:52;;;;;;;10.43;6.63;;;7.00;99.90;;;;;;10195709;29;20235;-95
2023/05/28 03:37:58;;;;;;;9.05;4.82;;;7.30;99.90;;;;;;10170627;29;20204;-96
2023/05/28 03:43:08;;;;;;;7.90;5.88;;;7.40;99.90;;;;;;10195524;29;20585;-96
2023/05/28 03:48:13;;;;;;;10.93;5.55;;;7.50;99.90;;;;;;10183038;29;20284;-96
2023/05/28 03:53:17;;;;;;;8.18;5.38;;;7.60;99.90;;;;;;10184618;29;20291;-96
2023/05/28 03:58:26;;;;;;;12.93;6.30;;;7.70;99.90;;;;;;10180390;29;20228;-96
2023/05/28 04:03:43;;;;;;;7.95;5.60;;;7.90;99.90;;;;;;10206200;29;20207;-96
2023/05/28 04:08:58;;;;;;;7.78;5.40;;;8.30;99.90;;;;;;10202051;29;20271;-96
2023/05/28 04:14:31;;;;;;;7.95;5.28;;;8.40;99.90;;;;;;10211889;29;20235;-95
2023/05/28 04:19:33;;;;;;;12.00;6.15;;;8.60;99.90;;;;;;10213432;29;20267;-94
2023/05/28 04:24:36;;;;;;;8.68;5.32;;;9.10;99.90;;;;;;10181285;29;20271;-95
2023/05/28 04:29:39;;;;;;;7.90;5.85;;;9.20;99.90;;;;;;10196145;29;20211;-95
2023/05/28 04:34:45;;;;;;;7.97;3.42;;;9.40;99.90;;;;;;10195688;29;20415;-95
2023/05/28 04:39:51;;;;;;;4.50;3.30;;;10.20;99.90;;;;;;10196269;29;20267;-95
2023/05/28 04:44:53;;;;;;;8.88;4.20;;;10.50;99.90;;;;;;10196008;29;20255;-95
2023/05/28 04:49:59;;;;;;;5.50;3.80;;;10.80;99.90;;;;;;10194787;29;20206;-94
2023/05/28 04:55:05;;;;;;;10.35;4.90;;;11.00;99.90;;;;;;10197172;29;20258;-95
2023/05/28 05:00:14;;;;;;;7.07;4.25;;;11.20;99.90;;;;;;10195852;29;20211;-94
2023/05/28 05:05:17;;;;;;;16.25;4.80;;;;;;;;;;10202349;29;20239;-94
2023/05/28 05:10:21;;;;;;;10.05;6.07;;;11.50;99.90;;;;;;10196231;29;20562;-94
2023/05/28 05:15:26;;;;;;;10.02;3.45;;;11.70;99.90;;;;;;10197352;29;20647;-95
2023/05/28 05:20:30;;;;;;;4.38;3.22;;;11.90;99.90;;;;;;10197390;29;20215;-94
2023/05/28 05:25:33;;;;;;;6.22;3.22;;;12.20;99.90;;;;;;10196984;29;20553;-95
2023/05/28 05:30:36;;;;;;;4.10;2.97;;;12.40;99.90;;;;;;10196897;29;20211;-94
2023/05/28 05:35:40;;;;;;;3.25;1.95;;;;;;;;;;10199969;29;20234;-95
2023/05/28 05:41:18;;;;;;;7.35;3.65;;;13.00;99.90;;;;;;10132464;29;20245;-94
2023/05/28 05:46:23;;;;;;;5.85;3.10;;;13.20;99.90;;;;;;10115425;29;20272;-95
2023/05/28 05:51:27;;;;;;;4.25;3.13;;;13.40;99.90;;;;;;10116535;29;20268;-95
2023/05/28 05:56:30;;;;;;;3.80;2.65;;;13.60;99.90;;;;;;10100206;29;20220;-94
2023/05/28 06:01:32;;;;;;;3.55;2.40;;;13.80;99.90;;;;;;10115182;29;20216;-95
2023/05/28 06:06:37;;;;;;;2.60;2.03;;;14.10;99.90;;;;;;10115647;29;20212;-95
2023/05/28 06:11:59;;;;;;;4.03;2.38;;;14.40;99.90;;;;;;10145024;29;20267;-95
2023/05/28 06:17:02;;;;;;;4.88;2.65;;;14.70;98.70;;;;;;10143168;29;20281;-96
2023/05/28 06:22:05;;;;;;;7.43;3.42;;;14.90;97.80;;;;;;10144022;29;20265;-95
2023/05/28 06:27:09;;;;;;;5.03;2.83;;;15.00;92.90;;;;;;10126360;29;20276;-96
2023/05/28 06:32:14;;;;;;;4.25;2.17;;;15.10;92.40;;;;;;10143743;29;20228;-96
2023/05/28 06:37:21;;;;;;;7.75;2.60;;;15.40;92.50;;;;;;10150541;29;20550;-96
2023/05/28 06:42:26;;;;;;;4.35;2.03;;;15.70;92.10;;;;;;10182565;29;20236;-96
2023/05/28 06:47:43;;;;;;;2.83;1.55;;;15.90;90.70;;;;;;10168605;29;20207;-95
2023/05/28 06:52:47;;;;;;;1.95;1.73;;;;;;;;;;10183564;29;20231;-95
2023/05/28 06:57:52;;;;;;;5.18;2.28;;;16.80;84.30;;;;;;10182326;29;20546;-95
2023/05/28 07:03:09;;;;;;;2.03;1.55;;;16.90;87.40;;;;;;10179682;29;20275;-95
2023/05/28 07:08:30;;;;;;;2.65;1.80;;;17.10;85.00;;;;;;10182985;29;20238;-95
2023/05/28 07:13:34;;;;;;;3.35;1.90;;;17.30;66.10;;;;;;10170363;29;20348;-95
2023/05/28 07:18:37;;;;;;;5.75;1.35;;;18.40;77.30;;;;;;10201794;29;20203;-96
2023/05/28 07:23:42;;;;;;;2.10;1.67;;;18.00;65.00;;;;;;10200307;29;20219;-96
2023/05/28 07:28:45;;;;;;;2.85;1.90;;;18.00;57.50;;;;;;10201636;29;20594;-96
2023/05/28 07:33:50;;;;;;;2.33;1.50;;;17.90;71.40;;;;;;10200870;29;20630;-96
2023/05/28 07:38:53;;;;;;;3.13;1.63;;;;;;;;;;10200971;29;20211;-95
2023/05/28 07:43:59;;;;;;;2.42;1.75;;;18.60;51.30;;;;;;10160262;29;20557;-95
2023/05/28 07:49:04;;;;;;;4.93;1.85;;;;;;;;;;10145285;29;20207;-95
2023/05/28 07:54:16;;;;;;;1.75;1.52;;;19.10;60.20;;;;;;10175137;29;20674;-96
2023/05/28 07:59:22;;;;;;;2.58;1.58;;;19.20;60.50;;;;;;10162053;29;20211;-96
2023/05/28 08:04:27;;;;;;;4.70;1.45;;;19.30;48.00;;;;;;10161468;29;20203;-95
2023/05/28 08:09:30;;;;;;;5.05;1.88;;;19.50;44.00;;;;;;10175184;29;20211;-95
2023/05/28 08:14:34;;;;;;;2.25;1.63;;;19.60;51.40;;;;;;10147812;29;20231;-94
2023/05/28 08:19:45;;;;;;;5.57;1.60;;;19.60;39.50;;;;;;10198898;29;20602;-96
2023/05/28 08:25:22;;;;;;;2.50;1.35;;;19.70;40.30;;;;;;10188393;29;20243;-96
2023/05/28 08:30:31;;;;;;;2.13;1.10;;;19.80;41.70;;;;;;10200747;29;20215;-95
2023/05/28 08:35:42;;;;;;;1.50;1.25;;;19.80;34.40;;;;;;10184609;29;20588;-96
2023/05/28 08:40:50;;;;;;;3.63;1.60;;;19.90;32.60;;;;;;10180318;29;20276;-93
2023/05/28 08:45:54;;;;;;;4.38;1.80;;;19.90;30.30;;;;;;10165071;29;20222;-94
2023/05/28 08:51:06;;;;;;;3.53;1.67;;;20.10;31.30;;;;;;10198764;29;20646;-93
2023/05/28 08:56:13;;;;;;;7.35;1.63;;;20.30;36.70;;;;;;10197602;29;20239;-94
2023/05/28 09:01:16;;;;;;;2.47;1.48;;;20.30;26.90;;;;;;10186442;29;20203;-94
2023/05/28 09:06:41;;;;;;;1.95;1.27;;;20.40;32.70;;;;;;10172359;29;20541;-94
2023/05/28 09:12:03;;;;;;;2.85;1.50;;;20.40;31.20;;;;;;10202050;29;20235;-96
2023/05/28 09:17:09;;;;;;;4.40;2.33;;;20.30;25.60;;;;;;10196589;29;20222;-96
2023/05/28 09:22:18;;;;;;;1.45;1.25;;;20.60;32.70;;;;;;10183640;29;20207;-95
2023/05/28 09:27:37;;;;;;;2.85;2.10;;;20.70;37.60;;;;;;10177049;29;20207;-96
2023/05/28 09:32:40;;;;;;;1.77;1.20;;;20.70;36.60;;;;;;10142178;29;20227;-95
2023/05/28 09:37:43;;;;;;;1.85;1.35;;;20.80;31.50;;;;;;10187066;29;20203;-96
2023/05/28 10:17:32;;;;;;;3.75;1.10;;;21.00;29.20;;;;;;10245954;28;20235;-96
2023/05/28 10:29:42;;;;;;;1.73;1.25;;;21.00;27.10;;;;;;10199229;29;20191;-96
2023/05/28 10:34:45;;;;;;;3.90;1.33;;;21.10;30.20;;;;;;10198666;28;20761;-90
2023/05/28 10:39:48;;;;;;;1.77;1.15;;;21.10;25.70;;;;;;10226431;29;20207;-96
2023/05/28 10:51:54;;;;;;;5.00;1.25;;;21.30;30.40;;;;;;10026509;29;20202;-94
2023/05/28 10:57:11;;;;;;;2.38;1.23;;;21.30;25.10;;;;;;10006210;29;20262;-96
2023/05/28 11:02:20;;;;;;;1.52;1.30;;;21.40;27.90;;;;;;10007931;29;20304;-96
2023/05/28 11:08:17;;;;;;;1.48;0.65;;;21.30;31.50;;;;;;10011033;29;20715;-95
2023/05/28 11:13:20;;;;;;;2.00;1.13;;;21.30;24.60;;;;;;10020698;29;20733;-96
2023/05/28 11:18:22;;;;;;;2.85;1.33;;;21.40;21.50;;;;;;10009916;29;20207;-95
2023/05/28 11:23:25;;;;;;;4.10;1.75;;;21.40;22.10;;;;;;10021513;29;20272;-96
2023/05/28 11:28:48;;;;;;;2.55;1.38;;;21.40;20.10;;;;;;10189308;29;20214;-96
2023/05/28 11:33:51;;;;;;;1.67;1.20;;;21.50;23.60;;;;;;10219930;29;20698;-94
2023/05/28 11:39:02;;;;;;;2.30;1.27;;;21.50;25.60;;;;;;10202304;29;20270;-94
2023/05/28 11:44:21;;;;;;;2.88;1.52;;;21.40;17.80;;;;;;10189640;29;20220;-94
2023/05/28 11:49:25;;;;;;;3.22;1.08;;;21.50;19.20;;;;;;10200485;29;20258;-94
2023/05/28 11:54:27;;;;;;;1.65;1.10;;;21.40;22.10;;;;;;10201293;29;20235;-95
2023/05/28 11:59:32;;;;;;;1.02;0.93;;;21.30;15.70;;;;;;10184962;29;20219;-93
2023/05/28 12:04:34;;;;;;;7.07;1.50;;;21.40;22.30;;;;;;10199828;29;20210;-94
2023/05/28 12:09:37;;;;;;;5.15;1.80;;;21.50;21.20;;;;;;10216675;29;20210;-94
2023/05/28 12:14:40;;;;;;;3.45;1.60;;;21.50;19.40;;;;;;10216078;29;20238;-93
2023/05/28 12:19:42;;;;;;;2.45;1.60;;;21.40;13.50;;;;;;10183344;29;20215;-95
2023/05/28 12:24:55;;;;;;;2.28;0.95;;;21.30;12.50;;;;;;10184623;29;20565;-95
2023/05/28 12:29:58;;;;;;;2.90;1.30;;;21.50;20.30;;;;;;10215843;29;20266;-95
2023/05/28 12:35:00;;;;;;;2.38;1.17;;;21.50;18.30;;;;;;10215280;29;20222;-94
2023/05/28 12:40:06;;;;;;;3.10;1.75;;;21.50;14.10;;;;;;10199658;29;20235;-94
2023/05/28 12:45:09;;;;;;;1.73;1.00;;;21.50;12.10;;;;;;10199280;29;20545;-96
2023/05/28 12:50:12;;;;;;;1.35;0.80;;;21.60;14.60;;;;;;10196511;29;20266;-94
2023/05/28 12:55:15;;;;;;;2.85;1.60;;;21.50;20.30;;;;;;10192349;29;20342;-93
2023/05/28 13:00:19;;;;;;;18.23;3.42;;;21.30;11.60;;;;;;10177443;29;20262;-93
2023/05/28 13:05:22;;;;;;;4.70;1.52;;;21.20;12.90;;;;;;10209291;29;20243;-93
2023/05/28 13:10:25;;;;;;;5.90;2.20;;;21.20;11.50;;;;;;10177113;29;20199;-93
2023/05/28 13:15:28;;;;;;;13.27;2.67;;;21.40;15.50;;;;;;10208355;29;20262;-93
2023/05/28 13:20:32;;;;;;;3.17;1.48;;;21.60;20.10;;;;;;10208998;29;20243;-95
2023/05/28 13:25:37;;;;;;;2.53;1.15;;;21.60;12.10;;;;;;10158770;29;20211;-95
2023/05/28 13:30:41;;;;;;;7.50;1.60;;;21.50;13.40;;;;;;10204423;29;20203;-95
2023/05/28 13:35:46;;;;;;;5.28;1.60;;;21.70;11.50;;;;;;10198716;29;20629;-96
2023/05/28 13:40:49;;;;;;;7.90;2.35;;;21.70;9.80;;;;;;10198757;29;20227;-96
2023/05/28 13:46:01;;;;;;;8.05;2.28;;;21.80;12.60;;;;;;10213587;28;20207;-96
2023/05/28 13:51:11;;;;;;;13.60;2.20;;;21.80;14.30;;;;;;10189213;23;20234;-92
2023/05/28 13:56:15;;;;;;;8.25;2.55;;;21.80;12.90;;;;;;10150986;29;20258;-93
2023/05/28 14:01:17;;;;;;;4.05;1.15;;;21.80;19.90;;;;;;10176677;29;20706;-91
2023/05/28 14:06:20;;;;;;;3.58;1.63;;;21.70;12.00;;;;;;10199699;29;20624;-93
2023/05/28 14:11:25;;;;;;;3.97;1.15;;;21.80;21.00;;;;;;10140247;29;20243;-91
2023/05/28 14:16:47;;;;;;;3.03;1.20;;;21.80;12.80;;;;;;10166086;29;20266;-93
2023/05/28 14:21:50;;;;;;;2.25;1.10;;;21.90;13.50;;;;;;10192871;29;20234;-91
2023/05/28 14:26:52;;;;;;;1.58;1.15;;;21.90;17.00;;;;;;10202710;29;20328;-92
2023/05/28 14:31:55;;;;;;;2.78;1.50;;;22.00;14.70;;;;;;10211619;29;20254;-92
2023/05/28 14:36:59;;;;;;;6.80;2.03;;;22.00;17.50;;;;;;10195790;29;20978;-91
2023/05/28 14:42:02;;;;;;;5.35;2.30;;;21.90;16.30;;;;;;10188232;29;20706;-91
2023/05/28 14:47:05;;;;;;;4.25;2.03;;;22.00;27.80;;;;;;10194140;29;20321;-91
2023/05/28 14:52:26;;;;;;;6.97;2.53;;;22.00;29.80;;;;;;10179022;29;20302;-91
2023/05/28 14:57:28;;;;;;;10.05;2.33;;;21.90;31.50;;;;;;10193892;29;21019;-92
2023/05/28 15:02:31;;;;;;;2.90;1.40;;;21.90;27.50;;;;;;10211032;29;20243;-92
2023/05/28 15:07:34;;;;;;;3.55;2.08;;;21.90;28.20;;;;;;10210099;29;20247;-91
2023/05/28 15:12:37;;;;;;;4.55;1.83;;;21.90;26.10;;;;;;10210449;29;20625;-92
2023/05/28 15:17:39;;;;;;;3.83;1.60;;;21.80;24.60;;;;;;10193855;29;20263;-91
2023/05/28 15:22:42;;;;;;;10.57;1.73;;;21.80;28.70;;;;;;10210123;29;20290;-90
2023/05/28 15:27:45;;;;;;;3.17;1.75;;;21.80;30.00;;;;;;10210600;29;20337;-91
2023/05/28 15:32:48;;;;;;;6.38;1.75;;;21.80;27.70;;;;;;10192751;29;20689;-90
2023/05/28 15:37:51;;;;;;;6.93;1.80;;;21.80;29.60;;;;;;9866101;29;10000413;-92
2023/05/28 15:42:56;;;;;;;9.77;2.83;;;21.80;30.50;;;;;;10189066;29;20271;-91
2023/05/28 15:47:59;;;;;;;6.20;1.48;;;21.70;33.90;;;;;;10204391;29;20274;-92
2023/05/28 15:53:02;;;;;;;5.70;2.00;;;21.70;32.80;;;;;;10205661;29;20247;-91
2023/05/28 15:58:07;;;;;;;6.85;2.00;;;21.70;26.00;;;;;;10188583;29;20262;-91
2023/05/28 16:03:13;;;;;;;4.50;1.60;;;21.70;31.60;;;;;;10204256;29;20305;-91
2023/05/28 16:08:16;;;;;;;9.07;1.83;;;21.60;26.00;;;;;;10206445;29;20310;-92
2023/05/28 16:13:24;;;;;;;6.32;1.85;;;21.60;31.80;;;;;;10209561;29;20239;-94
2023/05/28 16:18:28;;;;;;;4.45;2.08;;;21.60;27.90;;;;;;10192554;29;20316;-94
2023/05/28 16:23:31;;;;;;;2.80;1.48;;;21.70;27.70;;;;;;10152094;29;20690;-95
2023/05/28 16:28:35;;;;;;;5.50;2.08;;;21.80;34.60;;;;;;10152493;29;20251;-95
2023/05/28 16:33:37;;;;;;;2.53;1.67;;;21.80;26.10;;;;;;9828100;29;9999844;-93
2023/05/28 16:38:40;;;;;;;1.92;1.25;;;21.90;25.00;;;;;;10209242;29;20329;-91
2023/05/28 16:43:43;;;;;;;8.85;2.47;;;21.80;18.80;;;;;;10188762;29;20246;-91
2023/05/28 16:48:46;;;;;;;11.10;2.20;;;21.90;24.80;;;;;;10206382;29;20270;-91
2023/05/28 16:53:49;;;;;;;3.75;2.13;;;21.90;24.00;;;;;;10183678;28;20656;-91
2023/05/28 16:58:53;;;;;;;7.70;2.40;;;21.80;27.20;;;;;;10169333;29;20295;-90
2023/05/28 17:03:55;;;;;;;10.43;2.10;;;21.80;30.00;;;;;;10176854;29;20230;-91
2023/05/28 17:08:58;;;;;;;6.78;2.28;;;21.70;28.40;;;;;;10189177;29;20687;-90
2023/05/28 17:14:01;;;;;;;3.00;1.42;;;21.70;25.80;;;;;;10181643;29;20708;-91
2023/05/28 17:19:04;;;;;;;4.32;2.00;;;21.50;22.30;;;;;;10206166;29;20775;-91
2023/05/28 17:24:06;;;;;;;4.78;1.98;;;21.40;22.40;;;;;;10171243;29;20286;-91
2023/05/28 17:29:09;;;;;;;4.55;1.50;;;21.30;25.80;;;;;;10185713;29;20238;-90
2023/05/28 17:34:12;;;;;;;2.55;1.77;;;21.10;19.40;;;;;;10205919;29;20238;-90
2023/05/28 17:39:15;;;;;;;5.53;1.60;;;21.00;23.40;;;;;;10197363;29;20289;-91
2023/05/28 17:44:18;;;;;;;6.55;1.20;;;20.80;17.80;;;;;;10198071;29;20247;-90
2023/05/28 17:49:20;;;;;;;5.80;1.33;;;20.60;19.80;;;;;;10219700;29;20829;-89
2023/05/28 17:54:23;;;;;;;7.30;2.08;;;20.30;18.70;;;;;;10204053;29;20810;-89
2023/05/28 17:59:26;;;;;;;7.35;2.10;;;20.00;18.50;;;;;;10177053;29;20239;-90
2023/05/28 18:04:29;;;;;;;4.80;1.60;;;19.60;19.00;;;;;;10206228;29;20239;-91
2023/05/28 18:09:31;;;;;;;9.05;2.05;;;19.30;20.10;;;;;;10206307;29;20644;-91
2023/05/28 18:14:36;;;;;;;6.93;2.22;;;19.00;21.10;;;;;;10189775;29;20255;-90
2023/05/28 18:19:39;;;;;;;6.68;1.90;;;18.80;21.30;;;;;;10191313;29;20748;-90
2023/05/28 18:24:41;;;;;;;5.80;1.70;;;18.50;22.60;;;;;;10194583;29;20243;-89
2023/05/28 18:29:44;;;;;;;8.15;1.50;;;18.00;24.50;;;;;;10206599;29;20250;-90
2023/05/28 18:34:47;;;;;;;1.63;1.40;;;17.80;25.80;;;;;;10209158;29;20258;-90
2023/05/28 18:39:52;;;;;;;6.80;1.75;;;17.50;29.20;;;;;;10208092;29;20376;-90
2023/05/28 18:44:55;;;;;;;9.27;1.55;;;17.10;31.60;;;;;;10210225;29;20246;-90
2023/05/28 18:49:58;;;;;;;4.25;1.58;;;16.80;33.90;;;;;;10193219;29;20278;-90
2023/05/28 18:55:01;;;;;;;2.30;1.15;;;16.50;36.40;;;;;;10203960;29;20321;-91
2023/05/28 19:00:04;;;;;;;3.83;1.52;;;16.10;38.00;;;;;;10201621;29;20238;-90
2023/05/28 19:05:07;;;;;;;3.97;2.03;;;15.90;40.40;;;;;;10209102;29;20310;-90
2023/05/28 19:10:10;;;;;;;22.02;2.72;;;15.40;41.90;;;;;;10209634;29;20246;-90
2023/05/28 19:15:13;;;;;;;12.50;2.60;;;15.30;44.30;;;;;;10167675;29;20295;-91
2023/05/28 19:20:15;;;;;;;3.42;1.85;;;15.10;47.90;;;;;;10187624;29;20615;-91
2023/05/28 19:25:18;;;;;;;5.28;2.35;;;15.00;54.10;;;;;;10197200;29;20239;-91
2023/05/28 19:30:21;;;;;;;7.05;2.33;;;15.00;59.60;;;;;;10201696;29;20271;-91
2023/05/28 19:35:23;;;;;;;6.93;2.47;;;14.50;64.80;;;;;;10175398;29;20305;-90
2023/05/28 19:40:26;;;;;;;3.10;1.48;;;14.30;70.80;;;;;;10179852;29;20242;-93
2023/05/28 19:45:29;;;;;;;26.63;3.17;;;14.30;80.50;;;;;;10174097;29;20287;-91
2023/05/28 19:50:31;;;;;;;28.58;4.50;;;14.30;85.60;;;;;;10203240;29;20261;-90
2023/05/28 19:55:35;;;;;;;24.02;3.10;;;13.70;87.40;;;;;;10207441;29;21052;-90
2023/05/28 20:00:37;;;;;;;28.42;4.50;;;13.60;91.70;;;;;;10189408;29;20320;-90
2023/05/28 20:05:40;;;;;;;6.60;1.63;;;13.60;94.30;;;;;;10204421;29;20309;-90
2023/05/28 20:10:43;;;;;;;9.25;2.80;;;13.60;97.80;;;;;;10206595;29;20306;-90
2023/05/28 20:15:46;;;;;;;6.65;2.45;;;13.60;98.10;;;;;;10171273;29;20297;-91
2023/05/28 20:20:49;;;;;;;7.78;2.40;;;13.50;98.50;;;;;;10206802;29;20298;-90
2023/05/28 20:25:53;;;;;;;3.33;1.52;;;13.50;99.90;;;;;;10203336;29;20246;-90
2023/05/28 20:30:56;;;;;;;8.77;2.40;;;13.40;99.90;;;;;;10208394;29;20270;-90
2023/05/28 20:36:00;;;;;;;7.82;2.88;;;12.90;99.90;;;;;;10183097;29;20330;-90
2023/05/28 20:41:03;;;;;;;13.43;3.63;;;12.90;99.90;;;;;;10190887;29;20239;-89
2023/05/28 20:46:06;;;;;;;5.82;2.38;;;12.80;99.90;;;;;;10185728;29;20220;-90
2023/05/28 20:51:09;;;;;;;5.82;2.88;;;12.80;99.90;;;;;;10195540;29;20258;-90
2023/05/28 20:56:12;;;;;;;4.25;2.17;;;12.70;99.90;;;;;;10168270;29;20326;-90
2023/05/28 21:01:15;;;;;;;11.27;2.95;;;12.70;99.90;;;;;;10192524;29;21060;-90
2023/05/28 21:06:24;;;;;;;6.43;2.92;;;12.70;99.90;;;;;;10180525;23;20771;31
2023/05/28 21:11:26;;;;;;;13.27;3.17;;;12.50;99.90;;;;;;10163829;29;20250;-81
2023/05/28 21:16:29;;;;;;;3.50;2.75;;;12.30;99.90;;;;;;10181245;29;20259;-81
2023/05/28 21:21:33;;;;;;;9.65;2.97;;;;;;;;;;10179789;29;20243;-82
2023/05/28 21:26:37;;;;;;;9.18;3.10;;;11.90;99.90;;;;;;10216437;23;20274;-81
2023/05/28 21:31:40;;;;;;;5.32;2.72;;;11.70;99.90;;;;;;10187590;29;20243;-81
2023/05/28 21:36:42;;;;;;;3.58;2.42;;;11.70;99.90;;;;;;10205989;29;20262;-82
2023/05/28 21:41:45;;;;;;;12.48;3.78;;;11.60;99.90;;;;;;10210335;29;20620;-81
2023/05/28 21:46:47;;;;;;;5.68;2.90;;;11.50;99.90;;;;;;10213204;29;20246;-81
2023/05/28 21:51:50;;;;;;;8.52;3.15;;;11.50;99.90;;;;;;10196151;29;20787;-81
2023/05/28 21:56:54;;;;;;;12.13;4.43;;;;;;;;;;10215561;23;20276;-82
2023/05/28 22:01:57;;;;;;;12.90;4.72;;;11.30;99.90;;;;;;10137384;29;20239;-81
2023/05/28 22:06:59;;;;;;;6.30;3.17;;;11.00;99.90;;;;;;10099671;29;21009;-82
2023/05/28 22:12:04;;;;;;;8.75;3.78;;;11.00;99.90;;;;;;10085914;29;20269;-81
2023/05/28 22:17:07;;;;;;;12.55;4.38;;;10.90;99.90;;;;;;10176435;23;20263;-82
2023/05/28 22:22:11;;;;;;;10.48;5.60;;;10.80;99.90;;;;;;10135234;29;20252;-81
2023/05/28 22:27:14;;;;;;;9.57;4.05;;;10.60;99.90;;;;;;10111353;29;20248;-82
2023/05/28 22:32:17;;;;;;;7.38;3.80;;;10.70;99.90;;;;;;10133575;29;20244;-82
2023/05/28 22:37:20;;;;;;;6.40;2.72;;;10.60;99.90;;;;;;10133998;29;20259;-82
2023/05/28 22:42:22;;;;;;;6.82;3.60;;;10.60;99.90;;;;;;10124905;29;20283;-82
2023/05/28 22:47:25;;;;;;;3.00;2.20;;;10.50;99.90;;;;;;10130996;29;20239;-86
2023/05/28 22:52:28;;;;;;;5.38;3.75;;;10.70;99.90;;;;;;10099408;29;20236;-86
2023/05/28 22:57:31;;;;;;;9.40;3.47;;;10.60;99.90;;;;;;10131001;29;20264;-84
2023/05/28 23:02:35;;;;;;;9.05;3.08;;;10.50;99.90;;;;;;10132558;29;20240;-84
2023/05/28 23:07:38;;;;;;;5.88;3.58;;;10.10;99.90;;;;;;10114694;29;20715;-84
2023/05/28 23:12:40;;;;;;;11.02;3.78;;;10.20;99.90;;;;;;10148264;23;20299;-84
2023/05/28 23:17:43;;;;;;;5.80;3.67;;;10.30;99.90;;;;;;10154380;29;20319;-84
2023/05/28 23:22:46;;;;;;;10.52;4.60;;;10.20;99.90;;;;;;10150614;29;20264;-84
2023/05/28 23:27:48;;;;;;;3.33;2.50;;;10.30;99.90;;;;;;10150184;29;20658;-86
2023/05/28 23:33:09;;;;;;;5.40;3.20;;;10.20;99.90;;;;;;10141133;29;20218;-87
2023/05/28 23:38:12;;;;;;;4.78;2.70;;;10.70;99.90;;;;;;10148957;29;20322;-86
2023/05/28 23:43:15;;;;;;;3.67;2.63;;;10.80;99.90;;;;;;10158085;29;20239;-81
2023/05/28 23:48:17;;;;;;;5.72;3.92;;;11.00;99.90;;;;;;10170573;29;20251;-82
2023/05/28 23:53:20;;;;;;;10.85;3.70;;;10.80;99.90;;;;;;10170517;29;20247;-82
2023/05/28 23:58:23;;;;;;;10.57;4.40;;;10.70;99.90;;;;;;10169798;29;20394;-82
